sensor_id;sensor_type;location;lat;lon;timestamp;P1;durP1;ratioP1;P2;durP2;ratioP2
6723;SDS011;3399;52.530;13.304;2023-02-11T00:01:38;36.20;;;23.90;;
6723;SDS011;3399;52.530;13.304;2023-02-11T00:04:04;45.30;;;25.00;;
6723;SDS011;3399;52.530;13.304;2023-02-11T00:06:31;39.93;;;24.57;;
6723;SDS011;3399;52.530;13.304;2023-02-11T00:08:57;39.87;;;25.80;;
6723;SDS011;3399;52.530;13.304;2023-02-11T00:11:23;44.50;;;25.70;;
6723;SDS011;3399;52.530;13.304;2023-02-11T00:13:54;37.17;;;23.63;;
6723;SDS011;3399;52.530;13.304;2023-02-11T00:16:20;38.03;;;23.87;;
6723;SDS011;3399;52.530;13.304;2023-02-11T00:18:45;38.87;;;24.97;;
6723;SDS011;3399;52.530;13.304;2023-02-11T00:21:16;39.07;;;24.30;;
6723;SDS011;3399;52.530;13.304;2023-02-11T00:23:43;40.47;;;24.73;;
6723;SDS011;3399;52.530;13.304;2023-02-11T00:26:11;36.90;;;24.90;;
6723;SDS011;3399;52.530;13.304;2023-02-11T00:28:38;40.63;;;25.37;;
6723;SDS011;3399;52.530;13.304;2023-02-11T00:31:04;37.77;;;23.33;;
6723;SDS011;3399;52.530;13.304;2023-02-11T00:33:30;37.73;;;24.17;;
6723;SDS011;3399;52.530;13.304;2023-02-11T00:35:55;37.57;;;25.33;;
6723;SDS011;3399;52.530;13.304;2023-02-11T00:38:21;40.83;;;24.00;;
6723;SDS011;3399;52.530;13.304;2023-02-11T00:40:46;37.57;;;23.87;;
6723;SDS011;3399;52.530;13.304;2023-02-11T00:43:12;39.90;;;24.43;;
6723;SDS011;3399;52.530;13.304;2023-02-11T00:45:37;34.97;;;23.70;;
6723;SDS011;3399;52.530;13.304;2023-02-11T00:48:03;41.97;;;25.27;;
6723;SDS011;3399;52.530;13.304;2023-02-11T00:50:28;44.37;;;25.70;;
6723;SDS011;3399;52.530;13.304;2023-02-11T00:52:54;38.37;;;23.63;;
6723;SDS011;3399;52.530;13.304;2023-02-11T00:55:19;40.67;;;24.50;;
6723;SDS011;3399;52.530;13.304;2023-02-11T00:57:45;40.47;;;24.17;;
6723;SDS011;3399;52.530;13.304;2023-02-11T01:00:11;34.90;;;24.47;;
6723;SDS011;3399;52.530;13.304;2023-02-11T01:02:38;35.97;;;23.63;;
6723;SDS011;3399;52.530;13.304;2023-02-11T01:05:04;42.17;;;24.13;;
6723;SDS011;3399;52.530;13.304;2023-02-11T01:07:29;36.63;;;23.20;;
6723;SDS011;3399;52.530;13.304;2023-02-11T01:10:00;41.07;;;24.70;;
6723;SDS011;3399;52.530;13.304;2023-02-11T01:12:26;43.87;;;25.80;;
6723;SDS011;3399;52.530;13.304;2023-02-11T01:14:52;38.30;;;25.70;;
6723;SDS011;3399;52.530;13.304;2023-02-11T01:17:17;38.33;;;25.37;;
6723;SDS011;3399;52.530;13.304;2023-02-11T01:19:43;46.37;;;26.53;;
6723;SDS011;3399;52.530;13.304;2023-02-11T01:22:08;36.70;;;25.03;;
6723;SDS011;3399;52.530;13.304;2023-02-11T01:24:34;38.60;;;25.83;;
6723;SDS011;3399;52.530;13.304;2023-02-11T01:26:59;45.23;;;25.83;;
6723;SDS011;3399;52.530;13.304;2023-02-11T01:29:25;39.90;;;25.37;;
6723;SDS011;3399;52.530;13.304;2023-02-11T01:31:50;38.63;;;24.77;;
6723;SDS011;3399;52.530;13.304;2023-02-11T01:34:16;37.70;;;24.00;;
6723;SDS011;3399;52.530;13.304;2023-02-11T01:36:41;38.13;;;22.20;;
6723;SDS011;3399;52.530;13.304;2023-02-11T01:39:07;34.97;;;22.83;;
6723;SDS011;3399;52.530;13.304;2023-02-11T01:41:33;39.10;;;24.57;;
6723;SDS011;3399;52.530;13.304;2023-02-11T01:46:51;36.30;;;23.57;;
6723;SDS011;3399;52.530;13.304;2023-02-11T01:49:21;35.30;;;23.37;;
6723;SDS011;3399;52.530;13.304;2023-02-11T01:51:52;35.77;;;24.13;;
6723;SDS011;3399;52.530;13.304;2023-02-11T01:54:20;39.37;;;25.47;;
6723;SDS011;3399;52.530;13.304;2023-02-11T01:57:07;36.40;;;23.60;;
6723;SDS011;3399;52.530;13.304;2023-02-11T01:59:51;39.07;;;25.00;;
6723;SDS011;3399;52.530;13.304;2023-02-11T02:03:14;39.23;;;24.53;;
6723;SDS011;3399;52.530;13.304;2023-02-11T02:05:21;43.60;;;27.77;;
6723;SDS011;3399;52.530;13.304;2023-02-11T02:07:57;38.80;;;25.27;;
6723;SDS011;3399;52.530;13.304;2023-02-11T02:10:29;41.20;;;26.43;;
6723;SDS011;3399;52.530;13.304;2023-02-11T02:12:58;39.33;;;25.77;;
6723;SDS011;3399;52.530;13.304;2023-02-11T02:15:27;39.77;;;25.20;;
6723;SDS011;3399;52.530;13.304;2023-02-11T02:17:58;40.80;;;26.77;;
6723;SDS011;3399;52.530;13.304;2023-02-11T02:23:53;38.47;;;26.30;;
6723;SDS011;3399;52.530;13.304;2023-02-11T02:32:47;42.23;;;25.57;;
6723;SDS011;3399;52.530;13.304;2023-02-11T02:38:06;39.67;;;27.40;;
6723;SDS011;3399;52.530;13.304;2023-02-11T02:40:48;39.67;;;27.33;;
6723;SDS011;3399;52.530;13.304;2023-02-11T02:43:22;40.37;;;25.60;;
6723;SDS011;3399;52.530;13.304;2023-02-11T02:45:51;44.03;;;26.97;;
6723;SDS011;3399;52.530;13.304;2023-02-11T02:48:26;38.20;;;27.00;;
6723;SDS011;3399;52.530;13.304;2023-02-11T03:02:30;46.13;;;26.30;;
6723;SDS011;3399;52.530;13.304;2023-02-11T03:04:50;38.70;;;25.27;;
6723;SDS011;3399;52.530;13.304;2023-02-11T03:07:26;43.17;;;27.63;;
6723;SDS011;3399;52.530;13.304;2023-02-11T03:10:11;39.63;;;26.83;;
6723;SDS011;3399;52.530;13.304;2023-02-11T03:12:41;38.50;;;25.07;;
6723;SDS011;3399;52.530;13.304;2023-02-11T03:15:08;39.73;;;27.87;;
6723;SDS011;3399;52.530;13.304;2023-02-11T03:17:36;44.70;;;29.07;;
6723;SDS011;3399;52.530;13.304;2023-02-11T03:20:05;39.43;;;27.47;;
6723;SDS011;3399;52.530;13.304;2023-02-11T03:22:37;45.97;;;27.30;;
6723;SDS011;3399;52.530;13.304;2023-02-11T03:25:06;45.73;;;27.17;;
6723;SDS011;3399;52.530;13.304;2023-02-11T03:27:38;41.00;;;27.63;;
6723;SDS011;3399;52.530;13.304;2023-02-11T03:30:12;48.37;;;30.13;;
6723;SDS011;3399;52.530;13.304;2023-02-11T03:32:51;42.73;;;28.67;;
6723;SDS011;3399;52.530;13.304;2023-02-11T03:35:45;41.60;;;28.73;;
6723;SDS011;3399;52.530;13.304;2023-02-11T03:38:24;44.00;;;27.90;;
6723;SDS011;3399;52.530;13.304;2023-02-11T03:40:55;48.73;;;29.07;;
6723;SDS011;3399;52.530;13.304;2023-02-11T03:43:41;46.63;;;27.73;;
6723;SDS011;3399;52.530;13.304;2023-02-11T03:46:10;45.00;;;28.77;;
6723;SDS011;3399;52.530;13.304;2023-02-11T03:48:39;40.70;;;28.13;;
6723;SDS011;3399;52.530;13.304;2023-02-11T03:51:09;41.07;;;28.87;;
6723;SDS011;3399;52.530;13.304;2023-02-11T03:53:37;45.37;;;28.77;;
6723;SDS011;3399;52.530;13.304;2023-02-11T03:56:05;46.03;;;28.20;;
6723;SDS011;3399;52.530;13.304;2023-02-11T03:58:34;44.93;;;29.63;;
6723;SDS011;3399;52.530;13.304;2023-02-11T04:01:00;46.57;;;29.73;;
6723;SDS011;3399;52.530;13.304;2023-02-11T04:03:26;43.63;;;29.37;;
6723;SDS011;3399;52.530;13.304;2023-02-11T04:05:52;45.27;;;30.27;;
6723;SDS011;3399;52.530;13.304;2023-02-11T04:08:18;41.83;;;27.17;;
6723;SDS011;3399;52.530;13.304;2023-02-11T04:10:44;45.00;;;28.10;;
6723;SDS011;3399;52.530;13.304;2023-02-11T04:13:13;41.23;;;29.70;;
6723;SDS011;3399;52.530;13.304;2023-02-11T04:15:39;48.80;;;28.93;;
6723;SDS011;3399;52.530;13.304;2023-02-11T04:18:04;48.00;;;32.50;;
6723;SDS011;3399;52.530;13.304;2023-02-11T04:20:30;47.60;;;30.67;;
6723;SDS011;3399;52.530;13.304;2023-02-11T04:22:55;50.33;;;29.13;;
6723;SDS011;3399;52.530;13.304;2023-02-11T04:25:21;48.83;;;31.30;;
6723;SDS011;3399;52.530;13.304;2023-02-11T04:27:46;44.07;;;29.00;;
6723;SDS011;3399;52.530;13.304;2023-02-11T04:30:12;45.67;;;29.70;;
6723;SDS011;3399;52.530;13.304;2023-02-11T04:32:37;48.03;;;29.97;;
6723;SDS011;3399;52.530;13.304;2023-02-11T04:35:03;47.07;;;28.80;;
6723;SDS011;3399;52.530;13.304;2023-02-11T04:37:29;51.00;;;31.67;;
6723;SDS011;3399;52.530;13.304;2023-02-11T04:39:55;47.67;;;31.77;;
6723;SDS011;3399;52.530;13.304;2023-02-11T04:42:20;50.27;;;31.23;;
6723;SDS011;3399;52.530;13.304;2023-02-11T04:44:46;50.37;;;32.50;;
6723;SDS011;3399;52.530;13.304;2023-02-11T04:47:11;47.80;;;30.33;;
6723;SDS011;3399;52.530;13.304;2023-02-11T04:49:39;49.37;;;30.63;;
6723;SDS011;3399;52.530;13.304;2023-02-11T04:52:05;47.43;;;29.43;;
6723;SDS011;3399;52.530;13.304;2023-02-11T04:54:30;50.07;;;33.53;;
6723;SDS011;3399;52.530;13.304;2023-02-11T04:56:55;51.10;;;33.10;;
6723;SDS011;3399;52.530;13.304;2023-02-11T04:59:21;54.07;;;33.47;;
6723;SDS011;3399;52.530;13.304;2023-02-11T05:01:46;47.30;;;31.07;;
6723;SDS011;3399;52.530;13.304;2023-02-11T05:04:13;54.23;;;32.67;;
6723;SDS011;3399;52.530;13.304;2023-02-11T05:06:39;57.67;;;33.70;;
6723;SDS011;3399;52.530;13.304;2023-02-11T05:09:04;50.93;;;32.37;;
6723;SDS011;3399;52.530;13.304;2023-02-11T05:11:30;55.17;;;34.50;;
6723;SDS011;3399;52.530;13.304;2023-02-11T05:13:55;51.53;;;33.43;;
6723;SDS011;3399;52.530;13.304;2023-02-11T05:16:21;50.70;;;34.37;;
6723;SDS011;3399;52.530;13.304;2023-02-11T05:18:47;52.23;;;35.93;;
6723;SDS011;3399;52.530;13.304;2023-02-11T05:21:14;56.03;;;33.60;;
6723;SDS011;3399;52.530;13.304;2023-02-11T05:23:41;52.37;;;35.63;;
6723;SDS011;3399;52.530;13.304;2023-02-11T05:26:07;51.97;;;34.30;;
6723;SDS011;3399;52.530;13.304;2023-02-11T05:28:33;55.57;;;35.23;;
6723;SDS011;3399;52.530;13.304;2023-02-11T05:30:59;51.87;;;35.07;;
6723;SDS011;3399;52.530;13.304;2023-02-11T05:33:25;63.13;;;36.87;;
6723;SDS011;3399;52.530;13.304;2023-02-11T05:35:50;54.27;;;34.53;;
6723;SDS011;3399;52.530;13.304;2023-02-11T05:38:16;51.37;;;35.97;;
6723;SDS011;3399;52.530;13.304;2023-02-11T05:40:41;56.50;;;34.37;;
6723;SDS011;3399;52.530;13.304;2023-02-11T05:43:07;47.77;;;32.57;;
6723;SDS011;3399;52.530;13.304;2023-02-11T05:45:33;51.53;;;33.53;;
6723;SDS011;3399;52.530;13.304;2023-02-11T05:47:58;53.70;;;35.57;;
6723;SDS011;3399;52.530;13.304;2023-02-11T05:50:24;62.23;;;39.87;;
6723;SDS011;3399;52.530;13.304;2023-02-11T05:52:50;54.23;;;36.73;;
6723;SDS011;3399;52.530;13.304;2023-02-11T05:55:15;53.23;;;36.70;;
6723;SDS011;3399;52.530;13.304;2023-02-11T05:57:41;67.37;;;38.67;;
6723;SDS011;3399;52.530;13.304;2023-02-11T06:00:07;62.53;;;39.33;;
6723;SDS011;3399;52.530;13.304;2023-02-11T06:02:33;54.70;;;36.43;;
6723;SDS011;3399;52.530;13.304;2023-02-11T06:04:58;58.63;;;35.93;;
6723;SDS011;3399;52.530;13.304;2023-02-11T06:07:24;58.40;;;37.37;;
6723;SDS011;3399;52.530;13.304;2023-02-11T06:09:50;57.27;;;36.43;;
6723;SDS011;3399;52.530;13.304;2023-02-11T06:12:16;59.97;;;38.10;;
6723;SDS011;3399;52.530;13.304;2023-02-11T06:14:41;54.10;;;37.33;;
6723;SDS011;3399;52.530;13.304;2023-02-11T06:17:07;59.87;;;38.63;;
6723;SDS011;3399;52.530;13.304;2023-02-11T06:19:32;63.70;;;39.00;;
6723;SDS011;3399;52.530;13.304;2023-02-11T06:21:58;58.73;;;39.27;;
6723;SDS011;3399;52.530;13.304;2023-02-11T06:24:23;60.90;;;38.20;;
6723;SDS011;3399;52.530;13.304;2023-02-11T06:26:49;64.13;;;40.40;;
6723;SDS011;3399;52.530;13.304;2023-02-11T06:29:15;67.83;;;39.20;;
6723;SDS011;3399;52.530;13.304;2023-02-11T06:31:41;66.80;;;41.07;;
6723;SDS011;3399;52.530;13.304;2023-02-11T06:34:07;60.40;;;39.87;;
6723;SDS011;3399;52.530;13.304;2023-02-11T06:36:33;60.93;;;40.27;;
6723;SDS011;3399;52.530;13.304;2023-02-11T06:38:59;64.90;;;39.60;;
6723;SDS011;3399;52.530;13.304;2023-02-11T06:41:25;69.60;;;41.37;;
6723;SDS011;3399;52.530;13.304;2023-02-11T06:43:51;65.27;;;39.60;;
6723;SDS011;3399;52.530;13.304;2023-02-11T06:46:17;59.43;;;39.10;;
6723;SDS011;3399;52.530;13.304;2023-02-11T06:48:42;69.00;;;40.43;;
6723;SDS011;3399;52.530;13.304;2023-02-11T06:51:08;66.60;;;42.43;;
6723;SDS011;3399;52.530;13.304;2023-02-11T06:53:37;66.17;;;41.43;;
6723;SDS011;3399;52.530;13.304;2023-02-11T06:56:05;66.13;;;38.50;;
6723;SDS011;3399;52.530;13.304;2023-02-11T06:58:33;66.57;;;39.77;;
6723;SDS011;3399;52.530;13.304;2023-02-11T07:00:58;61.47;;;40.07;;
6723;SDS011;3399;52.530;13.304;2023-02-11T07:03:24;59.57;;;39.23;;
6723;SDS011;3399;52.530;13.304;2023-02-11T07:05:50;62.90;;;42.17;;
6723;SDS011;3399;52.530;13.304;2023-02-11T07:08:15;60.33;;;40.10;;
6723;SDS011;3399;52.530;13.304;2023-02-11T07:10:41;62.33;;;40.73;;
6723;SDS011;3399;52.530;13.304;2023-02-11T07:13:07;65.93;;;41.03;;
6723;SDS011;3399;52.530;13.304;2023-02-11T07:15:32;64.47;;;40.40;;
6723;SDS011;3399;52.530;13.304;2023-02-11T07:17:58;68.53;;;42.33;;
6723;SDS011;3399;52.530;13.304;2023-02-11T07:20:24;69.33;;;41.37;;
6723;SDS011;3399;52.530;13.304;2023-02-11T07:22:50;70.57;;;43.53;;
6723;SDS011;3399;52.530;13.304;2023-02-11T07:25:15;65.80;;;39.93;;
6723;SDS011;3399;52.530;13.304;2023-02-11T07:27:41;63.97;;;41.37;;
6723;SDS011;3399;52.530;13.304;2023-02-11T07:30:06;59.23;;;37.13;;
6723;SDS011;3399;52.530;13.304;2023-02-11T07:32:32;63.67;;;41.37;;
6723;SDS011;3399;52.530;13.304;2023-02-11T07:34:58;58.10;;;39.07;;
6723;SDS011;3399;52.530;13.304;2023-02-11T07:37:23;71.00;;;40.27;;
6723;SDS011;3399;52.530;13.304;2023-02-11T07:39:49;64.00;;;40.80;;
6723;SDS011;3399;52.530;13.304;2023-02-11T07:42:14;65.20;;;40.37;;
6723;SDS011;3399;52.530;13.304;2023-02-11T07:44:40;61.13;;;40.87;;
6723;SDS011;3399;52.530;13.304;2023-02-11T07:47:05;57.43;;;39.97;;
6723;SDS011;3399;52.530;13.304;2023-02-11T07:49:31;57.90;;;39.03;;
6723;SDS011;3399;52.530;13.304;2023-02-11T07:51:56;64.30;;;40.50;;
6723;SDS011;3399;52.530;13.304;2023-02-11T07:54:22;71.07;;;41.90;;
6723;SDS011;3399;52.530;13.304;2023-02-11T07:56:47;61.97;;;39.13;;
6723;SDS011;3399;52.530;13.304;2023-02-11T07:59:13;55.47;;;37.10;;
6723;SDS011;3399;52.530;13.304;2023-02-11T08:01:38;61.60;;;37.43;;
6723;SDS011;3399;52.530;13.304;2023-02-11T08:04:04;63.63;;;37.77;;
6723;SDS011;3399;52.530;13.304;2023-02-11T08:06:30;64.90;;;37.47;;
6723;SDS011;3399;52.530;13.304;2023-02-11T08:08:57;63.30;;;38.27;;
6723;SDS011;3399;52.530;13.304;2023-02-11T08:11:28;61.80;;;38.60;;
6723;SDS011;3399;52.530;13.304;2023-02-11T08:13:54;57.47;;;36.83;;
6723;SDS011;3399;52.530;13.304;2023-02-11T08:16:24;55.30;;;35.37;;
6723;SDS011;3399;52.530;13.304;2023-02-11T08:18:52;60.33;;;35.97;;
6723;SDS011;3399;52.530;13.304;2023-02-11T08:21:20;61.97;;;37.30;;
6723;SDS011;3399;52.530;13.304;2023-02-11T08:23:45;53.43;;;36.77;;
6723;SDS011;3399;52.530;13.304;2023-02-11T08:26:15;57.47;;;36.97;;
6723;SDS011;3399;52.530;13.304;2023-02-11T08:28:43;60.47;;;37.87;;
6723;SDS011;3399;52.530;13.304;2023-02-11T08:31:13;65.47;;;39.13;;
6723;SDS011;3399;52.530;13.304;2023-02-11T08:33:43;67.20;;;38.50;;
6723;SDS011;3399;52.530;13.304;2023-02-11T08:36:11;58.50;;;38.50;;
6723;SDS011;3399;52.530;13.304;2023-02-11T08:39:19;70.23;;;39.27;;
6723;SDS011;3399;52.530;13.304;2023-02-11T08:41:42;63.50;;;40.37;;
6723;SDS011;3399;52.530;13.304;2023-02-11T08:44:08;58.80;;;36.33;;
6723;SDS011;3399;52.530;13.304;2023-02-11T08:46:34;59.70;;;38.93;;
6723;SDS011;3399;52.530;13.304;2023-02-11T08:49:00;61.67;;;39.10;;
6723;SDS011;3399;52.530;13.304;2023-02-11T08:51:26;58.07;;;38.10;;
6723;SDS011;3399;52.530;13.304;2023-02-11T08:53:54;63.37;;;37.77;;
6723;SDS011;3399;52.530;13.304;2023-02-11T08:56:20;60.23;;;37.73;;
6723;SDS011;3399;52.530;13.304;2023-02-11T08:58:47;57.47;;;35.53;;
6723;SDS011;3399;52.530;13.304;2023-02-11T09:01:15;55.70;;;35.67;;
6723;SDS011;3399;52.530;13.304;2023-02-11T09:03:42;56.10;;;37.83;;
6723;SDS011;3399;52.530;13.304;2023-02-11T09:06:09;55.67;;;33.57;;
6723;SDS011;3399;52.530;13.304;2023-02-11T09:08:36;59.23;;;35.43;;
6723;SDS011;3399;52.530;13.304;2023-02-11T09:11:02;56.33;;;35.97;;
6723;SDS011;3399;52.530;13.304;2023-02-11T09:13:29;48.47;;;32.57;;
6723;SDS011;3399;52.530;13.304;2023-02-11T09:15:55;57.60;;;36.10;;
6723;SDS011;3399;52.530;13.304;2023-02-11T09:18:21;56.67;;;36.13;;
6723;SDS011;3399;52.530;13.304;2023-02-11T09:20:46;58.17;;;34.83;;
6723;SDS011;3399;52.530;13.304;2023-02-11T09:23:12;61.97;;;35.43;;
6723;SDS011;3399;52.530;13.304;2023-02-11T09:25:38;56.40;;;35.73;;
6723;SDS011;3399;52.530;13.304;2023-02-11T09:28:04;61.47;;;34.27;;
6723;SDS011;3399;52.530;13.304;2023-02-11T09:30:30;52.50;;;32.70;;
6723;SDS011;3399;52.530;13.304;2023-02-11T09:32:56;56.00;;;35.37;;
6723;SDS011;3399;52.530;13.304;2023-02-11T09:35:21;55.40;;;34.80;;
6723;SDS011;3399;52.530;13.304;2023-02-11T09:37:47;56.63;;;35.00;;
6723;SDS011;3399;52.530;13.304;2023-02-11T09:40:13;53.43;;;33.67;;
6723;SDS011;3399;52.530;13.304;2023-02-11T09:42:47;55.80;;;34.43;;
6723;SDS011;3399;52.530;13.304;2023-02-11T09:47:58;58.00;;;34.00;;
6723;SDS011;3399;52.530;13.304;2023-02-11T09:53:04;51.43;;;29.30;;
6723;SDS011;3399;52.530;13.304;2023-02-11T09:55:52;50.33;;;34.03;;
6723;SDS011;3399;52.530;13.304;2023-02-11T09:58:25;52.97;;;33.87;;
6723;SDS011;3399;52.530;13.304;2023-02-11T10:03:57;45.67;;;30.93;;
6723;SDS011;3399;52.530;13.304;2023-02-11T10:07:08;46.93;;;32.90;;
6723;SDS011;3399;52.530;13.304;2023-02-11T10:09:17;54.53;;;32.20;;
6723;SDS011;3399;52.530;13.304;2023-02-11T10:11:57;49.70;;;31.23;;
6723;SDS011;3399;52.530;13.304;2023-02-11T10:14:44;51.57;;;32.20;;
6723;SDS011;3399;52.530;13.304;2023-02-11T10:17:16;44.47;;;31.20;;
6723;SDS011;3399;52.530;13.304;2023-02-11T10:20:11;47.77;;;30.53;;
6723;SDS011;3399;52.530;13.304;2023-02-11T10:22:44;50.93;;;32.27;;
6723;SDS011;3399;52.530;13.304;2023-02-11T10:25:19;54.47;;;31.90;;
6723;SDS011;3399;52.530;13.304;2023-02-11T10:27:45;59.70;;;33.33;;
6723;SDS011;3399;52.530;13.304;2023-02-11T10:30:18;60.57;;;33.20;;
6723;SDS011;3399;52.530;13.304;2023-02-11T10:32:49;54.97;;;33.03;;
6723;SDS011;3399;52.530;13.304;2023-02-11T10:35:19;51.63;;;33.13;;
6723;SDS011;3399;52.530;13.304;2023-02-11T10:37:47;63.53;;;35.00;;
6723;SDS011;3399;52.530;13.304;2023-02-11T10:40:16;53.30;;;33.57;;
6723;SDS011;3399;52.530;13.304;2023-02-11T10:42:45;56.97;;;34.43;;
6723;SDS011;3399;52.530;13.304;2023-02-11T10:45:15;60.53;;;33.07;;
6723;SDS011;3399;52.530;13.304;2023-02-11T10:47:47;49.53;;;34.50;;
6723;SDS011;3399;52.530;13.304;2023-02-11T10:50:17;56.50;;;35.70;;
6723;SDS011;3399;52.530;13.304;2023-02-11T10:52:44;55.60;;;33.30;;
6723;SDS011;3399;52.530;13.304;2023-02-11T10:55:14;59.83;;;34.00;;
6723;SDS011;3399;52.530;13.304;2023-02-11T10:57:57;55.70;;;32.53;;
6723;SDS011;3399;52.530;13.304;2023-02-11T11:02:51;51.97;;;32.73;;
6723;SDS011;3399;52.530;13.304;2023-02-11T11:05:20;48.67;;;30.87;;
6723;SDS011;3399;52.530;13.304;2023-02-11T11:07:54;50.43;;;31.37;;
6723;SDS011;3399;52.530;13.304;2023-02-11T11:10:26;47.67;;;30.90;;
6723;SDS011;3399;52.530;13.304;2023-02-11T11:13:24;55.50;;;32.63;;
6723;SDS011;3399;52.530;13.304;2023-02-11T11:16:08;47.40;;;31.87;;
6723;SDS011;3399;52.530;13.304;2023-02-11T11:18:33;52.60;;;32.27;;
6723;SDS011;3399;52.530;13.304;2023-02-11T11:20:59;50.80;;;31.87;;
6723;SDS011;3399;52.530;13.304;2023-02-11T11:23:29;47.90;;;30.70;;
6723;SDS011;3399;52.530;13.304;2023-02-11T11:28:36;46.97;;;29.70;;
6723;SDS011;3399;52.530;13.304;2023-02-11T11:31:22;42.90;;;28.90;;
6723;SDS011;3399;52.530;13.304;2023-02-11T11:33:51;43.77;;;28.43;;
6723;SDS011;3399;52.530;13.304;2023-02-11T11:36:37;55.50;;;31.13;;
6723;SDS011;3399;52.530;13.304;2023-02-11T11:39:14;47.57;;;30.77;;
6723;SDS011;3399;52.530;13.304;2023-02-11T11:42:19;39.47;;;28.57;;
6723;SDS011;3399;52.530;13.304;2023-02-11T11:44:55;52.53;;;29.13;;
6723;SDS011;3399;52.530;13.304;2023-02-11T11:47:24;48.30;;;28.97;;
6723;SDS011;3399;52.530;13.304;2023-02-11T11:52:59;45.67;;;27.07;;
6723;SDS011;3399;52.530;13.304;2023-02-11T11:55:40;47.20;;;28.77;;
6723;SDS011;3399;52.530;13.304;2023-02-11T11:58:16;41.77;;;28.30;;
6723;SDS011;3399;52.530;13.304;2023-02-11T12:00:53;42.83;;;27.13;;
6723;SDS011;3399;52.530;13.304;2023-02-11T12:03:34;42.70;;;25.73;;
6723;SDS011;3399;52.530;13.304;2023-02-11T12:06:29;48.10;;;26.60;;
6723;SDS011;3399;52.530;13.304;2023-02-11T12:09:34;42.67;;;24.50;;
6723;SDS011;3399;52.530;13.304;2023-02-11T12:12:15;38.13;;;27.13;;
6723;SDS011;3399;52.530;13.304;2023-02-11T12:14:48;36.13;;;23.37;;
6723;SDS011;3399;52.530;13.304;2023-02-11T12:17:30;38.00;;;23.37;;
6723;SDS011;3399;52.530;13.304;2023-02-11T12:20:12;40.03;;;25.70;;
6723;SDS011;3399;52.530;13.304;2023-02-11T12:22:58;36.53;;;20.63;;
6723;SDS011;3399;52.530;13.304;2023-02-11T12:25:34;27.77;;;19.87;;
6723;SDS011;3399;52.530;13.304;2023-02-11T12:28:09;32.10;;;20.57;;
6723;SDS011;3399;52.530;13.304;2023-02-11T12:36:44;28.93;;;20.60;;
6723;SDS011;3399;52.530;13.304;2023-02-11T12:51:08;31.00;;;18.83;;
6723;SDS011;3399;52.530;13.304;2023-02-11T12:56:26;31.57;;;19.83;;
6723;SDS011;3399;52.530;13.304;2023-02-11T12:59:00;29.37;;;22.10;;
6723;SDS011;3399;52.530;13.304;2023-02-11T13:01:30;33.17;;;21.73;;
6723;SDS011;3399;52.530;13.304;2023-02-11T13:04:04;30.87;;;19.57;;
6723;SDS011;3399;52.530;13.304;2023-02-11T13:06:40;29.20;;;21.47;;
6723;SDS011;3399;52.530;13.304;2023-02-11T13:09:23;29.90;;;20.80;;
6723;SDS011;3399;52.530;13.304;2023-02-11T13:11:54;29.63;;;19.83;;
6723;SDS011;3399;52.530;13.304;2023-02-11T13:14:44;31.47;;;20.67;;
6723;SDS011;3399;52.530;13.304;2023-02-11T13:17:17;30.63;;;20.63;;
6723;SDS011;3399;52.530;13.304;2023-02-11T13:19:50;30.67;;;19.13;;
6723;SDS011;3399;52.530;13.304;2023-02-11T13:22:19;26.23;;;19.37;;
6723;SDS011;3399;52.530;13.304;2023-02-11T13:24:54;24.37;;;17.77;;
6723;SDS011;3399;52.530;13.304;2023-02-11T13:27:37;24.40;;;18.07;;
6723;SDS011;3399;52.530;13.304;2023-02-11T13:30:22;25.90;;;18.40;;
6723;SDS011;3399;52.530;13.304;2023-02-11T13:35:25;24.20;;;19.57;;
6723;SDS011;3399;52.530;13.304;2023-02-11T13:38:21;26.30;;;19.60;;
6723;SDS011;3399;52.530;13.304;2023-02-11T13:43:46;24.00;;;16.13;;
6723;SDS011;3399;52.530;13.304;2023-02-11T13:46:46;27.53;;;17.70;;
6723;SDS011;3399;52.530;13.304;2023-02-11T13:49:19;30.80;;;17.93;;
6723;SDS011;3399;52.530;13.304;2023-02-11T13:52:15;24.27;;;17.83;;
6723;SDS011;3399;52.530;13.304;2023-02-11T13:54:51;23.30;;;18.40;;
6723;SDS011;3399;52.530;13.304;2023-02-11T13:59:45;22.60;;;17.07;;
6723;SDS011;3399;52.530;13.304;2023-02-11T14:19:32;23.23;;;18.27;;
6723;SDS011;3399;52.530;13.304;2023-02-11T14:22:04;27.93;;;18.30;;
6723;SDS011;3399;52.530;13.304;2023-02-11T14:30:01;27.70;;;20.00;;
6723;SDS011;3399;52.530;13.304;2023-02-11T14:32:53;23.50;;;17.37;;
6723;SDS011;3399;52.530;13.304;2023-02-11T14:35:43;22.07;;;17.17;;
6723;SDS011;3399;52.530;13.304;2023-02-11T14:41:19;27.23;;;18.30;;
6723;SDS011;3399;52.530;13.304;2023-02-11T14:43:52;24.60;;;17.67;;
6723;SDS011;3399;52.530;13.304;2023-02-11T14:46:22;28.77;;;18.93;;
6723;SDS011;3399;52.530;13.304;2023-02-11T14:48:51;21.30;;;16.97;;
6723;SDS011;3399;52.530;13.304;2023-02-11T14:53:51;18.67;;;15.70;;
6723;SDS011;3399;52.530;13.304;2023-02-11T14:56:22;25.83;;;19.23;;
6723;SDS011;3399;52.530;13.304;2023-02-11T15:01:43;22.77;;;16.13;;
6723;SDS011;3399;52.530;13.304;2023-02-11T15:06:51;24.60;;;17.80;;
6723;SDS011;3399;52.530;13.304;2023-02-11T15:09:18;24.37;;;16.97;;
6723;SDS011;3399;52.530;13.304;2023-02-11T15:11:49;22.30;;;15.83;;
6723;SDS011;3399;52.530;13.304;2023-02-11T15:14:26;25.73;;;16.17;;
6723;SDS011;3399;52.530;13.304;2023-02-11T15:16:55;25.23;;;17.50;;
6723;SDS011;3399;52.530;13.304;2023-02-11T15:19:24;23.23;;;15.83;;
6723;SDS011;3399;52.530;13.304;2023-02-11T15:21:55;24.70;;;17.23;;
6723;SDS011;3399;52.530;13.304;2023-02-11T15:24:22;27.20;;;16.43;;
6723;SDS011;3399;52.530;13.304;2023-02-11T15:27:02;23.80;;;17.13;;
6723;SDS011;3399;52.530;13.304;2023-02-11T15:29:39;25.93;;;15.60;;
6723;SDS011;3399;52.530;13.304;2023-02-11T15:32:14;26.73;;;16.33;;
6723;SDS011;3399;52.530;13.304;2023-02-11T15:34:50;20.43;;;15.47;;
6723;SDS011;3399;52.530;13.304;2023-02-11T15:37:22;21.03;;;14.77;;
6723;SDS011;3399;52.530;13.304;2023-02-11T15:39:50;25.97;;;16.37;;
6723;SDS011;3399;52.530;13.304;2023-02-11T15:44:43;19.33;;;17.20;;
6723;SDS011;3399;52.530;13.304;2023-02-11T15:47:10;23.10;;;15.97;;
6723;SDS011;3399;52.530;13.304;2023-02-11T15:49:38;20.07;;;15.97;;
6723;SDS011;3399;52.530;13.304;2023-02-11T15:52:08;18.30;;;14.03;;
6723;SDS011;3399;52.530;13.304;2023-02-11T15:54:33;16.13;;;12.20;;
6723;SDS011;3399;52.530;13.304;2023-02-11T15:57:08;20.90;;;14.60;;
6723;SDS011;3399;52.530;13.304;2023-02-11T15:59:35;20.13;;;14.67;;
6723;SDS011;3399;52.530;13.304;2023-02-11T16:02:19;18.30;;;13.80;;
6723;SDS011;3399;52.530;13.304;2023-02-11T16:04:54;19.07;;;11.57;;
6723;SDS011;3399;52.530;13.304;2023-02-11T16:12:52;18.13;;;13.37;;
6723;SDS011;3399;52.530;13.304;2023-02-11T16:17:58;15.40;;;12.50;;
6723;SDS011;3399;52.530;13.304;2023-02-11T16:20:30;18.00;;;13.17;;
6723;SDS011;3399;52.530;13.304;2023-02-11T16:22:55;14.77;;;12.87;;
6723;SDS011;3399;52.530;13.304;2023-02-11T16:25:21;16.63;;;12.50;;
6723;SDS011;3399;52.530;13.304;2023-02-11T16:27:48;17.73;;;12.67;;
6723;SDS011;3399;52.530;13.304;2023-02-11T16:30:21;18.80;;;12.53;;
6723;SDS011;3399;52.530;13.304;2023-02-11T16:32:48;17.90;;;12.57;;
6723;SDS011;3399;52.530;13.304;2023-02-11T16:35:13;16.70;;;11.73;;
6723;SDS011;3399;52.530;13.304;2023-02-11T16:37:38;13.67;;;11.73;;
6723;SDS011;3399;52.530;13.304;2023-02-11T16:40:04;15.70;;;12.60;;
6723;SDS011;3399;52.530;13.304;2023-02-11T16:42:30;16.90;;;12.60;;
6723;SDS011;3399;52.530;13.304;2023-02-11T16:44:55;14.50;;;11.63;;
6723;SDS011;3399;52.530;13.304;2023-02-11T16:47:25;16.47;;;12.70;;